Time;durP1;ratioP1;P1;durP2;ratioP2;P2;SDS_P1;SDS_P2;PMS_P1;PMS_P2;Temp;Humidity;BMP_temperature;BMP_pressure;BME280_temperature;BME280_humidity;BME280_pressure;Samples;Min_cycle;Max_cycle;Signal;HPM_P1;HPM_P2
2023/01/07 00:01:04;;;;;;;24.35;11.60;;;;;;;;;;8231874;28;20043;-87
2023/01/07 00:05:08;;;;;;;20.88;11.13;;;;;;;;;;8231662;28;20047;-87
2023/01/07 00:09:15;;;;;;;15.90;8.98;;;;;;;;;;8231778;28;20451;-87
2023/01/07 00:13:19;;;;;;;18.42;10.45;;;;;;;;;;8231407;28;20050;-91
2023/01/07 00:17:22;;;;;;;19.42;9.00;;;;;;;;;;8237358;28;20503;-87
2023/01/07 00:21:27;;;;;;;18.63;10.68;;;;;;;;;;8237850;28;20131;-88
2023/01/07 00:25:30;;;;;;;21.65;11.80;;;;;;;;;;8237869;28;20137;-86
2023/01/07 00:29:34;;;;;;;21.05;10.85;;;;;;;;;;8237904;28;20066;-87
2023/01/07 00:33:44;;;;;;;24.60;11.90;;;;;;;;;;8237889;28;20070;-87
2023/01/07 00:37:50;;;;;;;24.13;12.13;;;;;;;;;;8237591;28;20447;-88
2023/01/07 00:46:15;;;;;;;30.50;13.48;;;;;;;;;;8237429;28;20083;-88
2023/01/07 00:50:18;;;;;;;26.35;14.90;;;;;;;;;;8237171;28;20054;-88
2023/01/07 00:54:21;;;;;;;34.42;14.00;;;;;;;;;;8222434;28;20054;-89
2023/01/07 00:58:24;;;;;;;36.08;15.40;;;;;;;;;;8236486;28;20043;-87
2023/01/07 01:02:29;;;;;;;26.63;13.13;;;;;;;;;;8228813;28;20042;-87
2023/01/07 01:06:31;;;;;;;23.65;11.32;;;;;;;;;;8236598;28;20047;-87
2023/01/07 01:10:35;;;;;;;23.88;12.35;;;;;;;;;;8236745;28;20066;-87
2023/01/07 01:14:37;;;;;;;22.88;11.85;;;;;;;;;;8236467;28;20058;-88
2023/01/07 01:18:42;;;;;;;29.92;13.60;;;;;;;;;;8228462;28;20453;-87
2023/01/07 01:22:45;;;;;;;26.08;12.77;;;;;;;;;;8236184;28;20499;-88
2023/01/07 01:26:48;;;;;;;28.10;12.80;;;;;;;;;;8235114;28;20109;-87
2023/01/07 01:30:55;;;;;;;28.83;14.63;;;;;;;;;;8235686;28;20051;-87
2023/01/07 01:34:59;;;;;;;31.67;14.77;;;;;;;;;;8218962;28;20503;-87
2023/01/07 01:39:03;;;;;;;34.63;14.77;;;;;;;;;;8235732;28;20051;-87
2023/01/07 01:43:26;;;;;;;36.50;15.23;;;;;;;;;;8235514;28;20042;-88
2023/01/07 01:47:35;;;;;;;34.47;15.57;;;;;;;;;;8235616;28;20126;-90
2023/01/07 01:51:45;;;;;;;40.72;15.85;;;;;;;;;;8235369;28;20051;-89
2023/01/07 01:56:00;;;;;;;42.83;15.95;;;;;;;;;;8234276;28;20510;-89
2023/01/07 02:00:05;;;;;;;43.08;17.30;;;;;;;;;;8226049;28;20094;-88
2023/01/07 02:04:11;;;;;;;39.97;15.55;;;;;;;;;;8231557;28;20069;-84
2023/01/07 02:08:20;;;;;;;41.78;17.95;;;;;;;;;;8230050;28;20074;-86
2023/01/07 02:12:34;;;;;;;42.55;17.50;;;;;;;;;;8222982;28;20415;-85
2023/01/07 02:16:44;;;;;;;38.28;18.13;;;;;;;;;;8226098;28;20377;-90
2023/01/07 02:21:05;;;;;;;39.33;16.77;;;;;;;;;;8218250;28;20389;-86
2023/01/07 02:25:40;;;;;;;30.65;15.02;;;;;;;;;;8207885;28;20074;-87
2023/01/07 02:30:31;;;;;;;42.67;15.73;;;;;;;;;;8223483;28;20410;-90
2023/01/07 02:34:43;;;;;;;45.10;16.67;;;;;;;;;;8212089;28;21486;-89
2023/01/07 02:38:59;;;;;;;41.42;15.68;;;;;;;;;;8206495;28;20555;-85
2023/01/07 02:43:10;;;;;;;46.47;15.85;;;;;;;;;;8228632;28;20181;-86
2023/01/07 02:47:27;;;;;;;41.15;14.73;;;;;;;;;;8226352;28;20039;-85
2023/01/07 02:51:40;;;;;;;37.88;13.65;;;;;;;;;;8225169;28;20051;-85
2023/01/07 02:55:55;;;;;;;45.10;14.55;;;;;;;;;;8224890;28;20051;-85
2023/01/07 03:00:16;;;;;;;41.55;14.40;;;;;;;;;;8219074;28;20501;-89
2023/01/07 03:04:43;;;;;;;43.90;16.02;;;;;;;;;;8201059;28;20094;-88
2023/01/07 03:09:02;;;;;;;47.83;17.05;;;;;;;;;;8227132;28;20093;-85
2023/01/07 03:13:07;;;;;;;44.33;15.80;;;;;;;;;;8232024;28;20514;-85
2023/01/07 03:17:17;;;;;;;42.50;15.93;;;;;;;;;;8221837;28;20134;-86
2023/01/07 03:21:22;;;;;;;47.17;16.67;;;;;;;;;;8223415;28;20046;-85
2023/01/07 03:25:30;;;;;;;36.10;13.45;;;;;;;;;;8207900;28;20077;-86
2023/01/07 03:29:34;;;;;;;32.50;13.65;;;;;;;;;;8213073;28;20134;-85
2023/01/07 03:33:43;;;;;;;33.38;13.32;;;;;;;;;;8218023;28;20089;-85
2023/01/07 03:37:46;;;;;;;34.47;13.13;;;;;;;;;;8221544;28;20078;-85
2023/01/07 03:46:11;;;;;;;;;;;;;;;;;;8198111;28;20058;-85
2023/01/07 03:50:15;;;;;;;94.57;13.35;;;;;;;;;;8224948;28;19922;-85
2023/01/07 03:54:17;;;;;;;84.78;13.30;;;;;;;;;;8234279;28;20043;-85
2023/01/07 03:58:22;;;;;;;382.08;20.63;;;;;;;;;;8222311;28;20051;-85
2023/01/07 04:02:25;;;;;;;253.68;14.65;;;;;;;;;;8221362;28;20043;-85
2023/01/07 04:06:28;;;;;;;171.70;13.52;;;;;;;;;;8219650;28;20043;-85
2023/01/07 04:10:30;;;;;;;163.73;14.65;;;;;;;;;;8218345;28;20062;-85
2023/01/07 04:14:34;;;;;;;94.85;10.82;;;;;;;;;;8230226;28;20051;-88
2023/01/07 04:18:37;;;;;;;58.15;12.90;;;;;;;;;;8222935;28;20043;-84
2023/01/07 04:22:40;;;;;;;121.07;14.00;;;;;;;;;;8219241;28;20085;-84
2023/01/07 04:26:43;;;;;;;105.47;16.70;;;;;;;;;;8230352;28;20050;-84
2023/01/07 04:30:47;;;;;;;93.18;15.55;;;;;;;;;;8230885;28;20500;-85
2023/01/07 04:34:49;;;;;;;61.65;14.32;;;;;;;;;;8231059;28;20047;-89
2023/01/07 04:38:52;;;;;;;51.17;14.52;;;;;;;;;;8229234;28;20039;-85
2023/01/07 04:42:55;;;;;;;84.28;15.27;;;;;;;;;;8229866;28;20049;-85
2023/01/07 04:46:59;;;;;;;82.55;26.08;;;;;;;;;;8230860;28;20055;-84
2023/01/07 04:51:02;;;;;;;49.10;14.93;;;;;;;;;;8230856;28;20534;-86
2023/01/07 04:55:05;;;;;;;32.10;12.40;;;;;;;;;;8230368;28;20066;-85
2023/01/07 04:59:08;;;;;;;37.85;12.63;;;;;;;;;;8227066;28;20057;-85
2023/01/07 05:03:12;;;;;;;38.28;11.57;;;;;;;;;;8235529;28;20174;-84
2023/01/07 05:07:15;;;;;;;37.30;11.45;;;;;;;;;;8236590;28;20407;-85
2023/01/07 05:11:20;;;;;;;77.70;13.07;;;;;;;;;;8235825;28;20042;-84
2023/01/07 05:15:23;;;;;;;45.67;13.82;;;;;;;;;;8235078;28;20125;-84
2023/01/07 05:19:27;;;;;;;68.47;19.02;;;;;;;;;;8230956;28;20047;-84
2023/01/07 05:23:30;;;;;;;69.22;14.38;;;;;;;;;;8235708;28;20065;-84
2023/01/07 05:27:32;;;;;;;75.85;12.88;;;;;;;;;;8235315;28;20039;-87
2023/01/07 05:31:35;;;;;;;68.13;11.23;;;;;;;;;;8235596;28;20069;-85
2023/01/07 05:35:39;;;;;;;39.65;12.27;;;;;;;;;;8235156;28;20579;-85
2023/01/07 05:39:42;;;;;;;43.72;13.55;;;;;;;;;;8234980;28;20125;-85
2023/01/07 05:43:44;;;;;;;73.57;15.95;;;;;;;;;;8234178;28;20047;-85
2023/01/07 05:47:48;;;;;;;85.35;17.83;;;;;;;;;;8235050;28;20046;-88
2023/01/07 05:51:51;;;;;;;27.75;10.63;;;;;;;;;;8235292;28;20062;-85
2023/01/07 05:55:58;;;;;;;58.28;13.43;;;;;;;;;;8234486;28;20091;-85
2023/01/07 06:00:00;;;;;;;55.38;15.18;;;;;;;;;;8234503;28;20479;-84
2023/01/07 06:04:03;;;;;;;59.38;16.13;;;;;;;;;;8234623;28;20051;-85
2023/01/07 06:08:07;;;;;;;54.55;16.40;;;;;;;;;;8234098;28;20050;-85
2023/01/07 06:12:10;;;;;;;72.18;13.20;;;;;;;;;;8233339;28;20054;-85
2023/01/07 06:16:14;;;;;;;55.45;11.63;;;;;;;;;;8226817;28;20046;-85
2023/01/07 06:20:16;;;;;;;50.00;12.07;;;;;;;;;;8234364;28;20047;-85
2023/01/07 06:24:20;;;;;;;54.85;14.07;;;;;;;;;;8234291;28;20071;-85
2023/01/07 06:28:23;;;;;;;64.85;18.52;;;;;;;;;;8234387;28;20120;-86
2023/01/07 06:32:26;;;;;;;32.05;9.93;;;;;;;;;;8233632;28;20553;-86
2023/01/07 06:36:29;;;;;;;87.10;15.55;;;;;;;;;;8233598;28;20444;-85
2023/01/07 06:40:33;;;;;;;70.72;15.63;;;;;;;;;;8233485;28;20078;-85
2023/01/07 06:44:36;;;;;;;81.13;20.27;;;;;;;;;;8233511;28;20047;-86
2023/01/07 06:48:38;;;;;;;109.75;24.73;;;;;;;;;;8232711;28;20047;-86
2023/01/07 06:52:41;;;;;;;76.38;13.95;;;;;;;;;;8220359;28;20130;-86
2023/01/07 06:56:45;;;;;;;128.52;21.13;;;;;;;;;;8230484;28;20479;-86
2023/01/07 07:00:48;;;;;;;145.40;25.67;;;;;;;;;;8232859;28;20122;-90
2023/01/07 07:04:51;;;;;;;211.30;45.05;;;;;;;;;;8232218;28;20525;-85
2023/01/07 07:08:53;;;;;;;174.48;41.45;;;;;;;;;;8232704;28;20050;-91
2023/01/07 07:12:58;;;;;;;108.18;20.77;;;;;;;;;;8232287;28;20467;-86
2023/01/07 07:17:00;;;;;;;81.40;17.05;;;;;;;;;;8232511;28;20050;-84
2023/01/07 07:21:03;;;;;;;151.75;25.90;;;;;;;;;;8232368;28;20502;-84
2023/01/07 07:25:07;;;;;;;82.45;18.30;;;;;;;;;;8230861;28;20189;-85
2023/01/07 07:29:11;;;;;;;180.48;38.08;;;;;;;;;;8229848;28;20054;-85
2023/01/07 07:33:17;;;;;;;197.00;38.55;;;;;;;;;;8232313;28;20054;-85
2023/01/07 07:37:20;;;;;;;84.20;18.08;;;;;;;;;;8231048;28;20069;-85
2023/01/07 07:41:24;;;;;;;82.63;16.98;;;;;;;;;;8227856;28;20039;-85
2023/01/07 07:45:28;;;;;;;74.85;14.52;;;;;;;;;;8231967;28;20043;-85
2023/01/07 07:49:31;;;;;;;360.67;24.13;;;;;;;;;;8230832;28;20049;-85
2023/01/07 07:53:34;;;;;;;47.78;12.15;;;;;;;;;;8217504;28;20053;-86
2023/01/07 07:57:36;;;;;;;87.70;20.33;;;;;;;;;;8218614;28;20133;-87
2023/01/07 08:01:40;;;;;;;116.47;28.60;;;;;;;;;;8226258;28;20478;-89
2023/01/07 08:05:44;;;;;;;28.48;10.05;;;;;;;;;;8229775;28;20129;-86
2023/01/07 08:09:47;;;;;;;127.22;42.92;;;;;;;;;;8231625;28;20067;-85
2023/01/07 08:13:52;;;;;;;31.50;11.07;;;;;;;;;;8231071;28;20749;-86
2023/01/07 08:18:01;;;;;;;40.55;14.23;;;;;;;;;;8229117;28;20056;-86
2023/01/07 08:22:04;;;;;;;29.77;13.23;;;;;;;;;;8226661;28;20507;-86
2023/01/07 08:26:07;;;;;;;24.10;11.07;;;;;;;;;;8229028;28;20519;-89
2023/01/07 08:30:11;;;;;;;45.38;20.23;;;;;;;;;;8224204;28;20051;-87
2023/01/07 08:34:16;;;;;;;36.08;13.65;;;;;;;;;;8224119;28;20093;-83
2023/01/07 08:38:19;;;;;;;328.40;33.88;;;;;;;;;;8231746;28;20045;-83
2023/01/07 08:42:22;;;;;;;33.72;12.48;;;;;;;;;;8242699;28;20046;-83
2023/01/07 08:46:25;;;;;;;37.22;13.90;;;;;;;;;;8230827;28;20047;-83
2023/01/07 08:50:30;;;;;;;25.83;11.32;;;;;;;;;;8229990;28;20094;-86
2023/01/07 08:54:33;;;;;;;187.68;49.10;;;;;;;;;;8218534;28;20075;-86
2023/01/07 08:58:37;;;;;;;38.88;16.98;;;;;;;;;;8207515;28;20045;-90
2023/01/07 09:02:39;;;;;;;30.67;14.23;;;;;;;;;;8212521;28;20066;-88
2023/01/07 09:06:44;;;;;;;29.70;15.73;;;;;;;;;;8217191;28;20047;-88
2023/01/07 09:10:47;;;;;;;31.92;13.23;;;;;;;;;;8221214;28;20086;-85
2023/01/07 09:14:49;;;;;;;38.28;20.13;;;;;;;;;;8229156;28;20055;-88
2023/01/07 09:18:52;;;;;;;32.83;17.35;;;;;;;;;;8206087;28;20055;-88
2023/01/07 09:22:57;;;;;;;27.05;13.95;;;;;;;;;;8217019;28;20050;-84
2023/01/07 09:26:59;;;;;;;20.75;10.10;;;;;;;;;;8211868;28;20046;-87
2023/01/07 09:31:03;;;;;;;27.52;12.40;;;;;;;;;;8212277;28;20153;-85
2023/01/07 09:35:06;;;;;;;26.67;12.57;;;;;;;;;;8210756;28;20547;-86
2023/01/07 09:39:12;;;;;;;110.57;64.40;;;;;;;;;;8206116;28;20055;-84
2023/01/07 09:43:18;;;;;;;26.48;13.15;;;;;;;;;;8214233;28;20113;-87
2023/01/07 09:47:24;;;;;;;24.40;11.68;;;;;;;;;;8226081;28;20122;-85
2023/01/07 09:51:33;;;;;;;28.00;12.93;;;;;;;;;;8221072;28;20126;-84
2023/01/07 09:55:42;;;;;;;25.83;11.88;;;;;;;;;;8217076;28;20554;-84
2023/01/07 09:59:45;;;;;;;26.75;12.40;;;;;;;;;;8215251;28;20554;-88
2023/01/07 10:03:54;;;;;;;26.55;12.48;;;;;;;;;;8224771;28;20043;-86
2023/01/07 10:08:03;;;;;;;159.65;82.20;;;;;;;;;;8216430;28;20097;-84
2023/01/07 10:12:15;;;;;;;49.08;26.05;;;;;;;;;;8218801;28;20058;-85
2023/01/07 10:16:27;;;;;;;28.58;16.02;;;;;;;;;;8216032;28;20074;-88
2023/01/07 10:20:36;;;;;;;28.15;13.90;;;;;;;;;;8210693;28;20490;-91
2023/01/07 10:24:47;;;;;;;20.52;11.27;;;;;;;;;;8213461;28;20182;-90
2023/01/07 10:28:55;;;;;;;86.22;41.08;;;;;;;;;;8221807;28;20109;-90
2023/01/07 10:33:11;;;;;;;25.80;13.70;;;;;;;;;;8213451;28;20074;-88
2023/01/07 10:37:36;;;;;;;46.60;24.73;;;;;;;;;;8216586;28;20747;-90
2023/01/07 10:41:53;;;;;;;23.63;12.55;;;;;;;;;;8212273;28;20072;-86
2023/01/07 10:46:12;;;;;;;20.00;11.35;;;;;;;;;;8199775;28;20505;-87
2023/01/07 10:50:42;;;;;;;40.70;21.92;;;;;;;;;;8203670;28;20125;-88
2023/01/07 10:55:10;;;;;;;25.13;12.73;;;;;;;;;;8221669;28;20455;-86
2023/01/07 10:59:17;;;;;;;83.90;44.92;;;;;;;;;;8211769;28;20042;-87
2023/01/07 11:03:23;;;;;;;25.30;12.95;;;;;;;;;;8203781;28;20070;-87
2023/01/07 11:07:33;;;;;;;25.85;14.85;;;;;;;;;;8209243;28;20066;-89
2023/01/07 11:11:36;;;;;;;23.08;11.90;;;;;;;;;;8210260;28;20055;-87
2023/01/07 11:15:45;;;;;;;88.03;35.25;;;;;;;;;;8208687;28;20067;-89
2023/01/07 11:19:51;;;;;;;26.83;13.40;;;;;;;;;;8220647;28;20141;-89
2023/01/07 11:23:54;;;;;;;35.80;17.20;;;;;;;;;;8215617;28;20451;-88
2023/01/07 11:27:59;;;;;;;23.45;12.70;;;;;;;;;;8218004;28;20650;-86
2023/01/07 11:32:04;;;;;;;26.80;15.20;;;;;;;;;;8200917;28;20053;-87
2023/01/07 11:36:09;;;;;;;27.90;15.60;;;;;;;;;;8212064;28;20074;-87
2023/01/07 11:40:22;;;;;;;28.08;15.43;;;;;;;;;;8206282;28;20047;-87
2023/01/07 11:44:25;;;;;;;28.25;16.83;;;;;;;;;;8210637;28;20548;-87
2023/01/07 11:48:30;;;;;;;20.10;11.13;;;;;;;;;;8215766;28;20050;-86
2023/01/07 11:52:35;;;;;;;27.58;14.88;;;;;;;;;;8216182;28;20050;-87
2023/01/07 11:56:38;;;;;;;23.45;14.73;;;;;;;;;;8220382;28;20059;-87
2023/01/07 12:00:40;;;;;;;29.92;16.80;;;;;;;;;;8213890;28;20048;-87
2023/01/07 12:04:43;;;;;;;23.10;12.15;;;;;;;;;;8207054;28;20411;-90
2023/01/07 12:09:02;;;;;;;19.83;11.48;;;;;;;;;;8222399;28;20039;-90
2023/01/07 12:13:16;;;;;;;23.10;12.93;;;;;;;;;;8229509;28;20058;-90
2023/01/07 12:17:23;;;;;;;20.23;12.95;;;;;;;;;;8236041;28;20138;-86
2023/01/07 12:21:41;;;;;;;20.00;11.15;;;;;;;;;;8235743;28;20042;-91
2023/01/07 12:25:55;;;;;;;18.33;10.27;;;;;;;;;;8237965;28;20050;-89
2023/01/07 12:30:14;;;;;;;16.33;9.52;;;;;;;;;;8236546;28;20069;-88
2023/01/07 12:34:27;;;;;;;42.80;22.02;;;;;;;;;;8233881;28;20134;-86
2023/01/07 12:38:41;;;;;;;76.80;36.83;;;;;;;;;;8233332;28;20054;-88
2023/01/07 12:42:50;;;;;;;38.10;19.60;;;;;;;;;;8236770;28;20117;-86
2023/01/07 12:47:02;;;;;;;65.78;27.80;;;;;;;;;;8237370;28;20046;-87
2023/01/07 12:51:13;;;;;;;76.53;31.17;;;;;;;;;;8237533;28;20053;-87
2023/01/07 12:55:21;;;;;;;87.22;33.28;;;;;;;;;;8237854;28;20047;-89
2023/01/07 12:59:31;;;;;;;46.20;21.42;;;;;;;;;;8229483;28;20094;-86
2023/01/07 13:03:43;;;;;;;38.42;19.90;;;;;;;;;;8237956;28;20051;-92
2023/01/07 13:07:52;;;;;;;33.67;18.10;;;;;;;;;;8236001;28;20042;-86
2023/01/07 13:16:23;;;;;;;21.77;12.27;;;;;;;;;;8199544;28;20043;-87
2023/01/07 13:20:57;;;;;;;46.63;24.50;;;;;;;;;;8192234;29;20130;-87
2023/01/07 13:25:25;;;;;;;17.80;9.93;;;;;;;;;;8190371;28;20043;-87
2023/01/07 13:29:37;;;;;;;49.83;23.15;;;;;;;;;;8184714;28;20043;-87
2023/01/07 13:33:47;;;;;;;32.78;16.08;;;;;;;;;;8200401;29;20408;-87
2023/01/07 13:38:04;;;;;;;99.38;41.10;;;;;;;;;;8201127;29;20044;-87
2023/01/07 13:42:18;;;;;;;23.15;13.23;;;;;;;;;;8202052;29;20555;-88
2023/01/07 13:46:25;;;;;;;44.78;28.23;;;;;;;;;;8186871;29;20094;-88
2023/01/07 13:50:36;;;;;;;34.33;20.00;;;;;;;;;;8198970;28;20102;-85
2023/01/07 13:54:55;;;;;;;25.67;15.15;;;;;;;;;;8201414;29;20047;-85
2023/01/07 13:58:59;;;;;;;41.67;24.55;;;;;;;;;;8201772;29;20047;-85
2023/01/07 14:03:02;;;;;;;49.10;25.95;;;;;;;;;;8202074;29;20047;-85
2023/01/07 14:07:08;;;;;;;33.83;18.88;;;;;;;;;;8202447;29;20102;-85
2023/01/07 14:11:12;;;;;;;44.53;25.52;;;;;;;;;;8203111;28;20055;-85
2023/01/07 14:15:38;;;;;;;37.55;22.23;;;;;;;;;;8234775;28;20129;-85
2023/01/07 14:19:48;;;;;;;37.80;22.92;;;;;;;;;;8216930;28;20059;-85
2023/01/07 14:24:04;;;;;;;32.67;18.48;;;;;;;;;;8234575;28;20074;-86
2023/01/07 14:28:32;;;;;;;32.58;17.80;;;;;;;;;;8234484;28;20133;-85
2023/01/07 14:32:36;;;;;;;61.70;32.35;;;;;;;;;;8233791;28;20055;-85
2023/01/07 14:37:10;;;;;;;31.95;12.85;;;;;;;;;;8234313;28;20411;-85
2023/01/07 14:41:16;;;;;;;31.48;16.33;;;;;;;;;;8233935;28;20061;-85
2023/01/07 14:45:55;;;;;;;32.97;12.13;;;;;;;;;;8233787;28;20130;-85
2023/01/07 14:50:21;;;;;;;61.22;17.77;;;;;;;;;;8233859;28;20137;-84
2023/01/07 14:54:45;;;;;;;34.60;16.48;;;;;;;;;;8233578;28;20069;-84
2023/01/07 14:59:11;;;;;;;90.53;15.25;;;;;;;;;;8209652;28;20474;-87
2023/01/07 15:03:36;;;;;;;65.40;26.17;;;;;;;;;;8212617;28;20321;-90
2023/01/07 15:07:41;;;;;;;478.98;141.25;;;;;;;;;;8218601;28;20078;-84
2023/01/07 15:16:10;;;;;;;214.73;38.90;;;;;;;;;;8166075;28;20058;-89
2023/01/07 15:20:13;;;;;;;177.52;27.55;;;;;;;;;;8199087;28;20043;-84
2023/01/07 15:24:25;;;;;;;97.32;22.88;;;;;;;;;;8182221;28;20098;-84
2023/01/07 15:28:40;;;;;;;138.40;47.88;;;;;;;;;;8212500;28;20446;-86
2023/01/07 15:32:51;;;;;;;96.13;32.53;;;;;;;;;;8205731;28;20137;-84
2023/01/07 15:36:54;;;;;;;157.75;19.60;;;;;;;;;;8188892;28;20138;-88
2023/01/07 15:40:59;;;;;;;168.02;21.17;;;;;;;;;;8202859;28;20059;-85
2023/01/07 15:45:02;;;;;;;178.50;23.15;;;;;;;;;;8218135;28;20497;-84
2023/01/07 15:49:14;;;;;;;209.60;34.85;;;;;;;;;;8204085;28;20054;-85
2023/01/07 15:53:20;;;;;;;320.77;32.58;;;;;;;;;;8206357;28;20498;-84
2023/01/07 15:57:27;;;;;;;123.07;27.60;;;;;;;;;;8203592;28;20051;-85
2023/01/07 16:01:30;;;;;;;85.20;22.90;;;;;;;;;;8214872;28;20042;-87
2023/01/07 16:05:37;;;;;;;100.18;21.65;;;;;;;;;;8222140;28;20153;-87
2023/01/07 16:09:45;;;;;;;50.83;17.52;;;;;;;;;;8209736;28;20047;-87
2023/01/07 16:13:56;;;;;;;126.93;16.70;;;;;;;;;;8222739;28;20058;-85
2023/01/07 16:18:02;;;;;;;82.38;36.70;;;;;;;;;;8217488;28;20138;-85
2023/01/07 16:22:07;;;;;;;108.75;39.42;;;;;;;;;;8206864;28;20059;-86
2023/01/07 16:26:15;;;;;;;177.25;56.00;;;;;;;;;;8197643;28;20047;-85
2023/01/07 16:30:19;;;;;;;104.50;37.75;;;;;;;;;;8194321;28;20051;-84
2023/01/07 16:35:11;;;;;;;204.60;50.88;;;;;;;;;;8197782;28;20476;-85
2023/01/07 16:39:22;;;;;;;89.50;28.43;;;;;;;;;;8149638;28;20058;-84
2023/01/07 16:43:32;;;;;;;243.13;59.50;;;;;;;;;;8199657;28;20529;-88
2023/01/07 16:47:35;;;;;;;225.60;34.67;;;;;;;;;;8210926;28;20051;-88
2023/01/07 16:51:41;;;;;;;208.90;33.03;;;;;;;;;;8195130;28;20174;-87
2023/01/07 16:55:51;;;;;;;130.40;32.85;;;;;;;;;;8205292;28;20098;-86
2023/01/07 16:59:58;;;;;;;194.43;33.05;;;;;;;;;;8226186;28;20411;-85
2023/01/07 17:04:07;;;;;;;204.05;35.85;;;;;;;;;;8223262;28;20514;-85
2023/01/07 17:08:19;;;;;;;300.90;42.33;;;;;;;;;;8213617;28;20097;-84
2023/01/07 17:12:40;;;;;;;152.70;35.83;;;;;;;;;;8211065;28;20137;-84
2023/01/07 17:16:58;;;;;;;115.32;28.95;;;;;;;;;;8180747;28;20478;-91
2023/01/07 17:21:01;;;;;;;80.93;25.60;;;;;;;;;;8197102;28;20062;-83
2023/01/07 17:25:11;;;;;;;101.53;25.10;;;;;;;;;;8205059;28;20047;-90
2023/01/07 17:29:18;;;;;;;93.05;27.48;;;;;;;;;;8199858;28;20050;-87
2023/01/07 17:33:24;;;;;;;85.38;22.73;;;;;;;;;;8193609;28;20102;-88
2023/01/07 17:37:27;;;;;;;63.08;22.75;;;;;;;;;;8191571;28;20070;-86
2023/01/07 17:45:59;;;;;;;95.85;31.20;;;;;;;;;;8191282;28;20091;-91
2023/01/07 17:50:01;;;;;;;113.93;31.08;;;;;;;;;;8175621;28;20046;-90
2023/01/07 17:54:06;;;;;;;96.50;26.55;;;;;;;;;;8179836;29;20102;-90
2023/01/07 17:58:17;;;;;;;77.72;21.25;;;;;;;;;;8186739;28;20660;-90
2023/01/07 18:02:28;;;;;;;108.82;32.17;;;;;;;;;;8168545;28;20403;-90
2023/01/07 18:06:33;;;;;;;77.85;25.20;;;;;;;;;;8181076;28;20525;-88
2023/01/07 18:12:29;;;;;;;81.38;24.35;;;;;;;;;;8176895;28;20052;-88
2023/01/07 18:15:30;;;;;;;79.50;23.20;;;;;;;;;;8203098;28;20134;-89
2023/01/07 18:19:35;;;;;;;72.82;20.60;;;;;;;;;;8206336;28;20071;-93
2023/01/07 18:23:38;;;;;;;84.63;24.95;;;;;;;;;;8223370;28;20059;-89
2023/01/07 18:27:41;;;;;;;65.40;18.95;;;;;;;;;;8206235;28;20054;-90
2023/01/07 18:31:44;;;;;;;96.53;22.23;;;;;;;;;;8203455;28;20054;-89
2023/01/07 18:35:50;;;;;;;95.88;29.10;;;;;;;;;;8218546;28;20050;-89
2023/01/07 18:39:53;;;;;;;152.50;38.15;;;;;;;;;;8221836;28;20050;-90
2023/01/07 18:43:55;;;;;;;159.43;42.20;;;;;;;;;;8209742;28;20399;-90
2023/01/07 18:47:58;;;;;;;311.63;88.03;;;;;;;;;;8212166;28;20051;-90
2023/01/07 18:52:03;;;;;;;197.80;52.28;;;;;;;;;;8203580;28;20051;-89
2023/01/07 18:56:10;;;;;;;174.40;45.00;;;;;;;;;;8199699;28;20058;-89
2023/01/07 19:00:14;;;;;;;185.73;43.65;;;;;;;;;;8197911;28;20082;-90
2023/01/07 19:04:17;;;;;;;158.70;37.97;;;;;;;;;;8218986;28;20081;-90
2023/01/07 19:08:22;;;;;;;162.80;39.72;;;;;;;;;;8219174;28;20050;-91
2023/01/07 19:12:24;;;;;;;243.32;61.22;;;;;;;;;;8217991;28;20059;-90
2023/01/07 19:16:27;;;;;;;268.48;53.55;;;;;;;;;;8194721;28;20151;-88
2023/01/07 19:20:31;;;;;;;140.45;37.47;;;;;;;;;;8176687;29;20103;-89
2023/01/07 19:24:43;;;;;;;160.80;32.85;;;;;;;;;;8202139;28;20052;-87
2023/01/07 19:28:51;;;;;;;242.50;43.90;;;;;;;;;;8186661;28;20509;-87
2023/01/07 19:33:01;;;;;;;193.02;42.90;;;;;;;;;;8186247;28;20039;-85
2023/01/07 19:37:05;;;;;;;178.90;38.72;;;;;;;;;;8194792;28;20051;-87
2023/01/07 19:41:12;;;;;;;145.85;31.80;;;;;;;;;;8192791;28;20098;-86
2023/01/07 19:45:15;;;;;;;177.27;40.03;;;;;;;;;;8180980;28;20455;-84
2023/01/07 19:49:18;;;;;;;155.60;34.25;;;;;;;;;;8191443;28;20043;-89
2023/01/07 19:53:21;;;;;;;280.85;65.32;;;;;;;;;;8175917;28;20791;-89
2023/01/07 19:57:27;;;;;;;215.43;52.78;;;;;;;;;;8171050;28;20044;-86
2023/01/07 20:01:30;;;;;;;281.52;62.78;;;;;;;;;;8184366;28;20510;-88
2023/01/07 20:05:33;;;;;;;296.20;54.05;;;;;;;;;;8188113;28;20039;-88
2023/01/07 20:09:39;;;;;;;305.05;45.08;;;;;;;;;;8188731;28;20047;-92
2023/01/07 20:13:45;;;;;;;420.25;45.42;;;;;;;;;;8194911;28;20055;-86
2023/01/07 20:17:48;;;;;;;349.23;39.97;;;;;;;;;;8217286;28;20058;-89
2023/01/07 20:21:51;;;;;;;398.55;39.63;;;;;;;;;;8226911;28;20463;-88
2023/01/07 20:25:54;;;;;;;333.92;33.90;;;;;;;;;;8226325;28;20142;-90
2023/01/07 20:29:59;;;;;;;277.70;31.20;;;;;;;;;;8219824;28;20051;-89
2023/01/07 20:34:12;;;;;;;268.67;30.33;;;;;;;;;;8225268;28;20047;-84
2023/01/07 20:38:18;;;;;;;328.52;36.67;;;;;;;;;;8238282;28;20062;-91
2023/01/07 20:42:23;;;;;;;283.52;31.05;;;;;;;;;;8235208;28;20039;-88
2023/01/07 20:46:29;;;;;;;241.45;28.73;;;;;;;;;;8210632;28;20113;-85
2023/01/07 20:50:34;;;;;;;114.32;22.27;;;;;;;;;;8236909;28;20050;-84
2023/01/07 20:54:38;;;;;;;85.32;23.23;;;;;;;;;;8229349;28;20047;-85
2023/01/07 20:58:42;;;;;;;101.70;26.27;;;;;;;;;;8247407;28;20186;-84
2023/01/07 21:02:46;;;;;;;95.38;26.52;;;;;;;;;;8251871;28;20093;-84
2023/01/07 21:06:50;;;;;;;73.57;25.70;;;;;;;;;;8239896;28;20039;-83
2023/01/07 21:10:53;;;;;;;67.18;22.08;;;;;;;;;;8218703;28;20043;-85
2023/01/07 21:14:56;;;;;;;69.88;23.73;;;;;;;;;;8226009;28;20067;-93
2023/01/07 21:19:00;;;;;;;79.88;23.92;;;;;;;;;;8232024;28;20050;-90
2023/01/07 21:23:04;;;;;;;73.78;22.63;;;;;;;;;;8224224;28;20098;-83
2023/01/07 21:27:06;;;;;;;83.28;24.67;;;;;;;;;;8225345;28;20081;-83
2023/01/07 21:31:12;;;;;;;88.45;24.65;;;;;;;;;;8230751;28;20043;-83
2023/01/07 21:35:16;;;;;;;99.90;26.33;;;;;;;;;;8230568;28;20050;-85
2023/01/07 21:39:19;;;;;;;86.68;24.40;;;;;;;;;;8232717;28;20054;-93
2023/01/07 21:43:23;;;;;;;149.90;26.45;;;;;;;;;;8225730;28;20051;-86
2023/01/07 21:47:26;;;;;;;87.07;25.75;;;;;;;;;;8233144;28;20083;-83
2023/01/07 21:51:30;;;;;;;70.03;22.45;;;;;;;;;;8237252;28;20054;-82
2023/01/07 21:55:37;;;;;;;75.72;22.75;;;;;;;;;;8236645;28;20125;-82
2023/01/07 21:59:39;;;;;;;85.03;24.92;;;;;;;;;;8235957;28;20050;-83
2023/01/07 22:03:45;;;;;;;78.95;22.42;;;;;;;;;;8234804;28;20130;-83
2023/01/07 22:07:49;;;;;;;82.57;24.10;;;;;;;;;;8224846;28;20067;-82
2023/01/07 22:11:52;;;;;;;84.82;23.50;;;;;;;;;;8217397;28;20055;-83
2023/01/07 22:15:57;;;;;;;95.88;25.48;;;;;;;;;;8214556;28;20094;-89
2023/01/07 22:20:00;;;;;;;105.93;24.27;;;;;;;;;;8221252;28;20181;-94
2023/01/07 22:24:05;;;;;;;84.75;23.85;;;;;;;;;;8221183;28;20536;-82
2023/01/07 22:28:08;;;;;;;87.00;24.30;;;;;;;;;;8235979;28;20053;-96
2023/01/07 22:32:11;;;;;;;75.80;23.40;;;;;;;;;;8226979;28;20050;-84
2023/01/07 22:36:17;;;;;;;74.78;22.92;;;;;;;;;;8221449;28;20047;-93
2023/01/07 22:40:21;;;;;;;73.05;19.65;;;;;;;;;;8227512;28;20047;-85
2023/01/07 22:44:28;;;;;;;80.05;21.13;;;;;;;;;;8230335;28;20043;-84
2023/01/07 22:48:34;;;;;;;55.45;19.38;;;;;;;;;;8210408;28;20039;-85
2023/01/07 22:52:38;;;;;;;62.67;21.10;;;;;;;;;;8212739;28;20050;-85
2023/01/07 22:56:43;;;;;;;63.35;21.85;;;;;;;;;;8217002;28;20042;-86
2023/01/07 23:01:06;;;;;;;64.68;20.50;;;;;;;;;;8215831;28;20042;-84
2023/01/07 23:05:09;;;;;;;77.43;22.65;;;;;;;;;;8217606;28;20097;-85
2023/01/07 23:09:12;;;;;;;74.15;21.27;;;;;;;;;;8220563;28;20043;-84
2023/01/07 23:13:16;;;;;;;78.65;23.50;;;;;;;;;;8233419;28;20056;-84
2023/01/07 23:17:19;;;;;;;63.55;19.63;;;;;;;;;;8235517;28;20414;-83
2023/01/07 23:21:22;;;;;;;74.63;21.67;;;;;;;;;;8233437;28;20582;-84
2023/01/07 23:25:24;;;;;;;62.08;20.80;;;;;;;;;;8235524;28;20046;-84
2023/01/07 23:29:29;;;;;;;67.72;20.88;;;;;;;;;;8233743;28;20047;-85
2023/01/07 23:33:32;;;;;;;57.45;18.27;;;;;;;;;;8233819;28;20042;-90
2023/01/07 23:37:35;;;;;;;45.10;17.80;;;;;;;;;;8233490;28;20046;-84
2023/01/07 23:41:39;;;;;;;49.72;18.50;;;;;;;;;;8234531;28;20057;-84
2023/01/07 23:45:44;;;;;;;54.95;20.83;;;;;;;;;;8235921;28;20059;-84
2023/01/07 23:49:47;;;;;;;48.60;17.75;;;;;;;;;;8238290;28;20093;-84
2023/01/07 23:53:50;;;;;;;44.45;18.63;;;;;;;;;;8237717;28;20118;-84
2023/01/07 23:57:53;;;;;;;46.33;19.20;;;;;;;;;;8238359;28;20047;-85
